KA0WUC Weather Reports


Display with metric or nautical units.
time (UTC)temp
F
wind
direction
speed
MPH
gust
MPH
rain 1hr
in
rain 24hr
in
rain mn
in
humidity
%
barometer
mb
20220120053015 17 69 2.0 5.0 0.00 0.00 0.00 80 1029.5
20220120052016 16 68 3.0 4.0 0.00 0.00 0.00 81 1029.1
20220120051016 17 60 2.0 3.0 0.00 0.00 0.00 81 1029.0
20220120050016 16 60 0.0 2.0 0.00 0.00 0.00 81 1028.7
20220120045016 16 60 2.0 4.0 0.00 0.00 0.00 81 1028.6
20220120044016 16 60 1.0 4.0 0.00 0.00 0.00 81 1028.4
20220120043016 17 60 1.0 4.0 0.00 0.00 0.00 81 1028.4
20220120042016 17 75 2.0 5.0 0.00 0.00 0.00 81 1028.2
20220120041016 17 75 2.0 7.0 0.00 0.00 0.00 80 1028.0
20220120040016 17 75 2.0 5.0 0.00 0.00 0.00 80 1028.0
20220120033015 17 80 2.0 4.0 0.00 0.00 0.00 80 1027.6
20220120032016 17 80 2.0 5.0 0.00 0.00 0.00 80 1027.6
20220120031016 17 75 3.0 8.0 0.00 0.00 0.00 79 1027.5
20220120025015 18 90 3.0 7.0 0.00 0.00 0.00 77 1027.2
20220120024015 18 96 2.0 6.0 0.00 0.00 0.00 77 1027.5
20220120023016 18 53 3.0 7.0 0.00 0.00 0.00 76 1027.4
20220120020015 18 54 3.0 8.0 0.00 0.00 0.00 74 1026.9
20220120015016 18 64 3.0 7.0 0.00 0.00 0.00 73 1027.2
20220120013015 18 54 4.0 7.0 0.00 0.00 0.00 73 1027.0
20220120012016 19 47 3.0 9.0 0.00 0.00 0.00 74 1026.9
20220120011016 18 47 4.0 9.0 0.00 0.00 0.00 76 1026.6
20220120010015 18 77 3.0 5.0 0.00 0.00 0.00 77 1026.3
20220120004015 19 45 3.0 7.0 0.00 0.00 0.00 74 1026.3
20220120002015 19 61 3.0 6.0 0.00 0.00 0.00 76 1025.7
20220119235016 19 54 3.0 8.0 0.00 0.00 0.00 73 1025.4
20220119232015 20 45 3.0 10.0 0.00 0.00 0.00 71 1025.2
20220119231015 19 43 4.0 11.0 0.00 0.00 0.00 71 1025.1
20220119224015 19 65 4.0 8.0 0.00 0.00 0.00 73 1024.7
20220119223015 19 59 4.0 11.0 0.00 0.00 0.00 72 1024.4
20220119220015 20 57 5.0 12.0 0.00 0.00 0.00 69 1024.1
20220119214015 20 43 6.0 13.0 0.00 0.00 0.00 70 1024.2
20220119213015 20 27 8.0 14.0 0.00 0.00 0.00 71 1024.3
20220119205015 23 27 7.0 17.0 0.00 0.00 0.00 68 1023.9
20220119204015 23 35 6.0 16.0 0.00 0.00 0.00 68 1023.6
20220119200015 22 30 6.0 13.0 0.00 0.00 0.00 79 1023.4
20220119195015 21 47 4.0 11.0 0.00 0.00 0.00 81 1023.2
20220119191017 21 34 6.0 12.0 0.00 0.00 0.00 82 1023.8
20220119190016 21 23 8.0 12.0 0.00 0.00 0.00 82 1023.8
20220119185016 21 25 8.0 16.0 0.00 0.00 0.00 82 1023.7
20220119183015 21 30 5.0 11.0 0.00 0.00 0.00 79 1023.8
20220119180016 23 27 8.0 15.0 0.00 0.00 0.00 70 1024.1
20220119175016 24 27 7.0 16.0 0.00 0.00 0.00 71 1024.0
20220119174016 25 21 8.0 15.0 0.00 0.00 0.00 70 1023.9
20220119165016 24 51 6.0 11.0 0.00 0.00 0.00 73 1022.8
20220119164016 24 53 5.0 11.0 0.00 0.00 0.00 73 1022.5
20220119163016 24 55 5.0 11.0 0.00 0.00 0.00 73 1022.5
20220119162016 24 47 4.0 10.0 0.00 0.00 0.00 74 1022.2
20220119155016 24 76 4.0 9.0 0.00 0.00 0.00 74 1021.7
20220119154016 24 61 3.0 12.0 0.00 0.00 0.00 74 1021.8
20220119152016 24 60 5.0 10.0 0.00 0.00 0.00 74 1021.0
20220119151016 24 55 4.0 10.0 0.00 0.00 0.00 74 1020.8
20220119150017 24 41 4.0 13.0 0.00 0.00 0.00 74 1020.4
20220119145016 23 59 6.0 13.0 0.00 0.00 0.00 74 1020.2
20220119144016 24 51 5.0 11.0 0.00 0.00 0.00 73 1020.1
20220119143016 24 41 6.0 13.0 0.00 0.00 0.00 73 1020.0
20220119142016 25 43 9.0 15.0 0.00 0.00 0.00 72 1020.2
20220119141016 25 31 8.0 15.0 0.00 0.00 0.00 73 1020.2
20220119140016 25 42 5.0 12.0 0.00 0.00 0.00 73 1019.9
20220119132016 26 46 7.0 12.0 0.00 0.00 0.00 73 1019.0
20220119130016 27 31 5.0 10.0 0.00 0.00 0.00 73 1019.1
20220119125016 27 39 5.0 12.0 0.00 0.00 0.00 72 1019.1
20220119123017 27 30 5.0 11.0 0.00 0.00 0.00 71 1018.9
20220119114016 28 31 6.0 16.0 0.00 0.00 0.00 72 1018.8
20220119112015 29 26 9.0 18.0 0.00 0.00 0.00 73 1019.0
20220119110016 30 27 6.0 13.0 0.00 0.00 0.00 75 1018.9
20220119105015 30 41 5.0 11.0 0.00 0.00 0.00 77 1019.0
20220119104016 30 35 7.0 13.0 0.00 0.00 0.00 76 1018.9
20220119101016 31 26 6.0 15.0 0.00 0.00 0.00 76 1018.4
20220119100016 31 29 9.0 17.0 0.00 0.00 0.00 76 1018.2
20220119092015 34 36 8.0 13.0 0.00 0.00 0.00 72 1017.7
20220119091015 34 51 7.0 15.0 0.00 0.00 0.00 71 1017.4
20220119090015 35 44 9.0 17.0 0.00 0.00 0.00 69 1017.2
20220119084015 35 52 6.0 13.0 0.00 0.00 0.00 68 1016.5
20220119083015 36 59 8.0 15.0 0.00 0.00 0.00 66 1016.4
20220119082016 37 49 7.0 20.0 0.00 0.00 0.00 62 1016.2
20220119081015 37 50 6.0 12.0 0.00 0.00 0.00 61 1016.0
20220119080016 38 45 5.0 12.0 0.00 0.00 0.00 61 1015.9
20220119075015 38 54 6.0 13.0 0.00 0.00 0.00 59 1015.8
20220119065016 42 53 6.0 13.0 0.00 0.00 0.00 49 1014.1
20220119064016 42 54 6.0 13.0 0.00 0.00 0.00 48 1014.0
20220119063016 42 54 4.0 9.0 0.00 0.00 0.00 48 1014.1
20220119062016 42 54 3.0 8.0 0.00 0.00 0.00 47 1013.7
20220119061016 42 57 5.0 9.0 0.00 0.00 0.00 47 1013.7
20220119055016 43 55 2.0 6.0 0.00 0.00 0.00 47 1013.4